Alamo Heights, Texas
Current Conditions -  °F | °C
As of 5:34 AM on Friday 31 Oct 2014 (Local Time) from KSAT Reporting Station
Thunderstorm Thunderstorm  
Wind Chill: 66°   Ceiling: 4400
Heat Index: 66°   Visibility: 10mi
Dew Point: 63°   Wind: 9mph
Humidity: 90%   Direction: 20°NNE
Pressure: 30.16"   Gusts: NA
Location:  29.4797°N, 98.4508°W
Report Text: KSAT 311034Z 02008KT 10SM -TSRA SCT022 BKN044 OVC110 19/17 A3016 RMK AO2 TS OCNL LTGIC DSNT SE-SW MOVG S P0001 T01890172
Loading
Personal Weather Stations






























Interactive Weather Map
Tropical Storm Tracking
New forecast layout! Learn more

10-Day Weather Forecast

Advertisements
Track Severe Weather on mobile